Airport Name : Tirana Rinas

Other Name : Tirana Rinas

ICAO : LATI

IATA : TIA

FAA :

Latitude : 41.414742

Longitude : 19.720561

Country : Albania

Local Date and Time : 18 Jan 2021 16:58

 

TAF (Terminal Aerodrome Forecast)

TAF LATI 181114Z 1812/1912 VRB05KT CAVOK TX07/1812Z TNM06/1905Z

 

METAR (METeorological Aerodrome Report)

LATI 181550Z 32008KT CAVOK 03/M08 Q1021 NOSIG

LATI 181520Z 33007KT CAVOK 04/M09 Q1020 NOSIG

LATI 181450Z 33008KT CAVOK 05/M10 Q1020 NOSIG

LATI 181420Z 33009KT CAVOK 06/M10 Q1020 NOSIG

LATI 181350Z 34008KT 300V360 CAVOK 06/M09 Q1020 NOSIG

LATI 181320Z 34009KT CAVOK 07/M09 Q1020 NOSIG

LATI 181250Z 17004KT 100V210 CAVOK 07/M11 Q1019 NOSIG

LATI 181220Z VRB03KT CAVOK 07/M11 Q1019 NOSIG

To Charter a Jet Click here.